Terminal Aerodrome Forecast
Issued by NWS Blacksburg, VA

Home | Current Version | Previous Version | Text Only | Print | Product List | Glossary On
Versions: 1 2 3 4 5 6 7 8 9 10 11 12 13 14 15 16 17 18 19 20 21 22 23 24 25 26 27 28 29 30 31 32 33 34 35 36 37 38 39 40 41
000
FTUS41 KRNK 271127
TAFBLF
TAF
KBLF 271127Z 2712/2812 31008KT 5SM -SHSN OVC012
      TEMPO 2712/2714 2SM -SN OVC007
     FM271400 30007KT P6SM OVC015
     FM272000 31010KT P6SM BKN025
     FM280100 09003KT P6SM SCT020 BKN100=

USA.gov is the U.S. government's official web portal to all federal, state and local government web resources and services.